createdAt,value
2024-02-10T00:00:28.184Z,23
2024-02-10T00:02:11.543Z,23
2024-02-10T00:03:54.929Z,23
2024-02-10T00:05:38.342Z,23
2024-02-10T00:07:21.725Z,23
2024-02-10T00:09:05.666Z,23
2024-02-10T00:10:48.834Z,23
2024-02-10T00:12:32.231Z,23
2024-02-10T00:14:15.645Z,23
2024-02-10T00:15:59.121Z,23
2024-02-10T00:17:42.416Z,23
2024-02-10T00:19:25.967Z,22.9
2024-02-10T00:21:09.208Z,22.9
2024-02-10T00:22:52.919Z,22.9
2024-02-10T00:24:36.320Z,22.9
2024-02-10T00:26:19.715Z,22.9
2024-02-10T00:28:03.118Z,22.9
2024-02-10T00:29:46.522Z,22.9
2024-02-10T00:31:29.905Z,22.9
2024-02-10T00:33:13.474Z,22.9
2024-02-10T00:34:56.689Z,22.9
2024-02-10T00:36:40.415Z,22.9
2024-02-10T00:38:23.800Z,22.9
2024-02-10T00:40:07.237Z,22.9
2024-02-10T00:41:50.628Z,22.9
2024-02-10T00:43:33.977Z,22.9
2024-02-10T00:45:17.509Z,22.9
2024-02-10T00:47:00.807Z,22.9
2024-02-10T00:50:27.364Z,22.9
2024-02-10T00:52:10.668Z,22.9
2024-02-10T00:53:54.221Z,22.9
2024-02-10T00:55:37.481Z,22.9
2024-02-10T00:57:20.837Z,22.9
2024-02-10T00:59:04.242Z,22.9
2024-02-10T01:00:47.753Z,22.9
2024-02-10T01:05:56.895Z,22.9
2024-02-10T01:07:40.276Z,22.9
2024-02-10T01:09:23.703Z,22.9
2024-02-10T01:11:07.072Z,22.9
2024-02-10T01:12:50.468Z,22.9
2024-02-10T01:14:33.873Z,22.9
2024-02-10T01:16:17.259Z,22.9
2024-02-10T01:19:43.739Z,22.9
2024-02-10T01:21:27.145Z,22.8
2024-02-10T01:23:10.534Z,22.8
2024-02-10T01:24:53.940Z,22.8
2024-02-10T01:26:37.322Z,22.8
2024-02-10T01:28:20.720Z,22.8
2024-02-10T01:30:04.126Z,22.8
2024-02-10T01:31:47.526Z,22.8
2024-02-10T01:33:31.211Z,22.8
2024-02-10T01:35:14.609Z,22.8
2024-02-10T01:36:58.058Z,22.8
2024-02-10T01:38:41.406Z,22.8
2024-02-10T01:40:24.904Z,22.8
2024-02-10T01:42:08.191Z,22.8
2024-02-10T01:43:51.659Z,22.8
2024-02-10T01:49:00.988Z,22.8
2024-02-10T01:50:44.236Z,22.8
2024-02-10T01:52:27.639Z,22.8
2024-02-10T01:54:11.029Z,22.8
2024-02-10T01:55:54.421Z,22.8
2024-02-10T01:57:37.837Z,22.8
2024-02-10T01:59:21.302Z,22.8
2024-02-10T02:02:47.758Z,22.8
2024-02-10T02:04:31.163Z,22.8
2024-02-10T02:06:14.512Z,22.8
2024-02-10T02:07:57.875Z,22.8
2024-02-10T02:09:41.342Z,22.8
2024-02-10T02:11:25.013Z,22.8
2024-02-10T02:13:08.266Z,22.8
2024-02-10T02:18:17.327Z,22.8
2024-02-10T02:20:00.714Z,22.8
2024-02-10T02:21:44.320Z,22.8
2024-02-10T02:23:27.703Z,22.8
2024-02-10T02:25:10.904Z,22.8
2024-02-10T02:26:54.472Z,22.8
2024-02-10T02:28:37.976Z,22.8
2024-02-10T02:32:04.326Z,22.7
2024-02-10T02:33:47.577Z,22.7
2024-02-10T02:35:31.101Z,22.7
2024-02-10T02:37:14.437Z,22.7
2024-02-10T02:38:57.775Z,22.7
2024-02-10T02:40:41.405Z,22.7
2024-02-10T02:42:24.786Z,22.7
2024-02-10T02:45:51.323Z,22.7
2024-02-10T02:47:34.642Z,22.7
2024-02-10T02:49:18.051Z,22.7
2024-02-10T02:51:01.414Z,22.7
2024-02-10T02:52:44.629Z,22.7
2024-02-10T02:54:28.288Z,22.7
2024-02-10T02:56:11.539Z,22.7
2024-02-10T03:01:20.676Z,22.7
2024-02-10T03:03:04.139Z,22.7
2024-02-10T03:04:47.462Z,22.7
2024-02-10T03:06:30.882Z,22.7
2024-02-10T03:08:14.257Z,22.7
2024-02-10T03:09:57.793Z,22.7
2024-02-10T03:11:41.052Z,22.7
2024-02-10T03:16:50.282Z,22.7
2024-02-10T03:18:33.934Z,22.7
2024-02-10T03:20:17.147Z,22.7
2024-02-10T03:22:00.518Z,22.7
2024-02-10T03:23:43.914Z,22.7
2024-02-10T03:25:27.266Z,22.7
2024-02-10T03:27:10.717Z,22.7
2024-02-10T03:28:54.308Z,22.7
2024-02-10T03:30:37.786Z,22.7
2024-02-10T03:32:21.166Z,22.7
2024-02-10T03:34:04.581Z,22.7
2024-02-10T03:35:48.044Z,22.7
2024-02-10T03:37:31.382Z,22.7
2024-02-10T03:39:14.936Z,22.7
2024-02-10T03:40:58.157Z,22.7
2024-02-10T03:42:41.549Z,22.7
2024-02-10T03:46:08.035Z,22.7
2024-02-10T03:47:51.492Z,22.7
2024-02-10T03:49:35.031Z,22.7
2024-02-10T03:51:18.206Z,22.7
2024-02-10T03:53:01.610Z,22.7
2024-02-10T03:54:45.014Z,22.7
2024-02-10T03:56:28.416Z,22.7
2024-02-10T03:58:11.895Z,22.7
2024-02-10T03:59:55.525Z,22.7
2024-02-10T04:01:38.919Z,22.7
2024-02-10T04:03:22.290Z,22.7
2024-02-10T04:05:05.846Z,22.7
2024-02-10T04:06:49.112Z,22.7
2024-02-10T04:08:32.709Z,22.7
2024-02-10T04:10:15.894Z,22.7
2024-02-10T04:11:59.335Z,22.7
2024-02-10T04:15:26.402Z,22.7
2024-02-10T04:17:09.929Z,22.7
2024-02-10T04:18:53.373Z,22.7
2024-02-10T04:20:36.699Z,22.7
2024-02-10T04:22:20.045Z,22.7
2024-02-10T04:24:03.440Z,22.7
2024-02-10T04:29:12.747Z,22.7
2024-02-10T04:30:56.022Z,22.7
2024-02-10T04:32:39.407Z,22.7
2024-02-10T04:34:22.804Z,22.7
2024-02-10T04:36:06.197Z,22.7
2024-02-10T04:37:49.600Z,22.7
2024-02-10T04:39:33.059Z,22.7
2024-02-10T04:42:59.479Z,22.7
2024-02-10T04:44:42.872Z,22.7
2024-02-10T04:46:26.314Z,22.7
2024-02-10T04:48:09.650Z,22.7
2024-02-10T04:49:53.135Z,22.7
2024-02-10T04:51:36.449Z,22.7
2024-02-10T04:53:19.878Z,22.7
2024-02-10T04:58:29.212Z,22.7
2024-02-10T05:00:12.494Z,22.7
2024-02-10T05:01:55.934Z,22.7
2024-02-10T05:03:39.309Z,22.7
2024-02-10T05:05:22.708Z,22.7
2024-02-10T05:07:06.170Z,22.7
2024-02-10T05:08:49.483Z,22.7
2024-02-10T05:13:58.851Z,22.7
2024-02-10T05:15:42.127Z,22.7
2024-02-10T05:17:25.574Z,22.7
2024-02-10T05:19:09.187Z,22.7
2024-02-10T05:20:52.307Z,22.7
2024-02-10T05:22:35.780Z,22.7
2024-02-10T05:24:19.115Z,22.7
2024-02-10T05:27:45.578Z,22.7
2024-02-10T05:29:29.014Z,22.7
2024-02-10T05:31:12.352Z,22.7
2024-02-10T05:32:55.819Z,22.7
2024-02-10T05:34:39.160Z,22.7
2024-02-10T05:36:22.587Z,22.7
2024-02-10T05:38:06.014Z,22.7
2024-02-10T05:41:32.606Z,22.7
2024-02-10T05:43:15.835Z,22.7
2024-02-10T05:44:59.285Z,22.7
2024-02-10T05:46:42.752Z,22.7
2024-02-10T05:48:26.021Z,22.7
2024-02-10T05:50:09.454Z,22.7
2024-02-10T05:51:53.070Z,22.7
2024-02-10T05:57:02.059Z,22.7
2024-02-10T05:58:45.780Z,22.7
2024-02-10T06:00:28.876Z,22.7
2024-02-10T06:02:12.241Z,22.7
2024-02-10T06:03:55.640Z,22.7
2024-02-10T06:05:39.048Z,22.7
2024-02-10T06:07:22.438Z,22.7
2024-02-10T06:10:49.022Z,22.7
2024-02-10T06:12:32.302Z,22.7
2024-02-10T06:14:15.699Z,22.7
2024-02-10T06:15:59.092Z,22.7
2024-02-10T06:17:42.509Z,22.7
2024-02-10T06:19:26.170Z,22.7
2024-02-10T06:21:09.582Z,22.7
2024-02-10T06:26:18.726Z,22.7
2024-02-10T06:28:01.944Z,22.7
2024-02-10T06:29:45.336Z,22.7
2024-02-10T06:31:28.721Z,22.7
2024-02-10T06:33:12.139Z,22.7
2024-02-10T06:34:55.528Z,22.7
2024-02-10T06:40:05.612Z,22.7
2024-02-10T06:41:49.052Z,22.7
2024-02-10T06:43:32.432Z,22.7
2024-02-10T06:45:15.731Z,22.7
2024-02-10T06:46:59.250Z,22.7
2024-02-10T06:48:42.386Z,22.7
2024-02-10T06:50:25.930Z,22.7
2024-02-10T06:55:35.360Z,22.7
2024-02-10T06:57:18.493Z,22.7
2024-02-10T06:59:01.933Z,22.7
2024-02-10T07:00:45.208Z,22.7
2024-02-10T07:02:28.702Z,22.7
2024-02-10T07:04:12.266Z,22.7
2024-02-10T07:05:55.674Z,22.7
2024-02-10T07:11:04.694Z,22.7
2024-02-10T07:12:48.135Z,22.7
2024-02-10T07:14:31.609Z,22.7
2024-02-10T07:16:15.070Z,22.7
2024-02-10T07:17:58.283Z,22.7
2024-02-10T07:19:41.823Z,22.7
2024-02-10T07:21:25.112Z,22.7
2024-02-10T07:24:51.559Z,22.6
2024-02-10T07:26:34.908Z,22.7
2024-02-10T07:28:18.573Z,22.7
2024-02-10T07:30:01.758Z,22.7
2024-02-10T07:31:45.199Z,22.6
2024-02-10T07:33:28.506Z,22.6
2024-02-10T07:35:11.940Z,22.7
2024-02-10T07:36:55.330Z,22.7
2024-02-10T07:40:21.755Z,22.6
2024-02-10T07:42:05.137Z,22.6
2024-02-10T07:43:48.564Z,22.6
2024-02-10T07:45:31.949Z,22.6
2024-02-10T07:47:15.340Z,22.6
2024-02-10T07:48:58.738Z,22.6
2024-02-10T07:50:42.133Z,22.6
2024-02-10T07:52:25.604Z,22.6
2024-02-10T07:54:09.372Z,22.6
2024-02-10T07:55:52.652Z,22.6
2024-02-10T07:57:36.038Z,22.6
2024-02-10T07:59:19.553Z,22.6
2024-02-10T08:01:02.974Z,22.6
2024-02-10T08:02:46.230Z,22.6
2024-02-10T08:04:29.637Z,22.6
2024-02-10T08:06:13.158Z,22.6
2024-02-10T08:09:39.489Z,22.6
2024-02-10T08:11:22.955Z,22.6
2024-02-10T08:13:06.294Z,22.6
2024-02-10T08:14:49.723Z,22.6
2024-02-10T08:16:33.089Z,22.6
2024-02-10T08:18:16.694Z,22.6
2024-02-10T08:20:00.007Z,22.6
2024-02-10T08:21:43.354Z,22.6
2024-02-10T08:23:27.019Z,22.6
2024-02-10T08:25:10.415Z,22.6
2024-02-10T08:26:53.920Z,22.6
2024-02-10T08:28:37.573Z,22.6
2024-02-10T08:30:20.807Z,22.6
2024-02-10T08:32:03.996Z,22.6
2024-02-10T08:33:47.423Z,22.6
2024-02-10T08:35:30.839Z,22.6
2024-02-10T08:37:14.475Z,22.6
2024-02-10T08:38:57.861Z,22.6
2024-02-10T08:40:41.528Z,22.6
2024-02-10T08:42:24.926Z,22.6
2024-02-10T08:44:08.086Z,22.6
2024-02-10T08:45:51.495Z,22.6
2024-02-10T08:47:34.891Z,22.6
2024-02-10T08:49:18.382Z,22.6
2024-02-10T08:52:44.872Z,22.6
2024-02-10T08:54:28.257Z,22.6
2024-02-10T08:56:11.557Z,22.6
2024-02-10T08:57:54.895Z,22.6
2024-02-10T08:59:38.547Z,22.6
2024-02-10T09:01:22.022Z,22.7
2024-02-10T09:03:05.318Z,22.7
2024-02-10T09:06:31.624Z,22.7
2024-02-10T09:08:15.100Z,22.7
2024-02-10T09:09:58.742Z,22.7
2024-02-10T09:11:41.988Z,22.7
2024-02-10T09:13:25.369Z,22.8
2024-02-10T09:15:08.870Z,22.8
2024-02-10T09:16:52.155Z,22.8
2024-02-10T09:18:35.652Z,22.8
2024-02-10T09:22:02.078Z,22.8
2024-02-10T09:23:45.376Z,22.8
2024-02-10T09:25:28.772Z,22.8
2024-02-10T09:27:12.132Z,22.8
2024-02-10T09:28:55.518Z,22.8
2024-02-10T09:30:39.047Z,22.8
2024-02-10T09:32:22.274Z,22.8
2024-02-10T09:37:31.479Z,22.8
2024-02-10T09:39:14.841Z,22.8
2024-02-10T09:40:58.253Z,22.8
2024-02-10T09:42:41.692Z,22.8
2024-02-10T09:44:25.219Z,22.8
2024-02-10T09:46:08.724Z,22.8
2024-02-10T09:47:51.960Z,22.8
2024-02-10T09:53:01.152Z,22.8
2024-02-10T09:54:44.703Z,22.8
2024-02-10T09:56:27.967Z,22.8
2024-02-10T09:58:11.319Z,22.8
2024-02-10T09:59:54.640Z,22.8
2024-02-10T10:01:38.046Z,22.8
2024-02-10T10:03:21.444Z,22.8
2024-02-10T10:08:30.861Z,22.8
2024-02-10T10:10:14.088Z,22.8
2024-02-10T10:11:57.481Z,22.8
2024-02-10T10:13:40.937Z,22.8
2024-02-10T10:15:24.436Z,22.8
2024-02-10T10:17:07.683Z,22.8
2024-02-10T10:18:51.252Z,22.8
2024-02-10T10:24:00.323Z,22.8
2024-02-10T10:25:43.721Z,22.8
2024-02-10T10:27:27.102Z,22.8
2024-02-10T10:29:10.547Z,22.8
2024-02-10T10:30:53.999Z,22.8
2024-02-10T10:32:37.299Z,22.8
2024-02-10T10:34:20.688Z,22.8
2024-02-10T10:36:04.102Z,22.8
2024-02-10T10:39:30.581Z,22.8
2024-02-10T10:41:13.972Z,22.8
2024-02-10T10:42:57.341Z,22.8
2024-02-10T10:44:40.823Z,22.8
2024-02-10T10:46:24.176Z,22.8
2024-02-10T10:48:07.549Z,22.8
2024-02-10T10:49:51.231Z,22.8
2024-02-10T10:53:17.452Z,22.8
2024-02-10T10:55:00.876Z,22.9
2024-02-10T10:56:44.216Z,22.8
2024-02-10T10:58:27.723Z,22.8
2024-02-10T11:00:11.014Z,22.9
2024-02-10T11:01:54.448Z,22.9
2024-02-10T11:03:37.862Z,22.9
2024-02-10T11:05:21.259Z,22.9
2024-02-10T11:07:05.075Z,22.9
2024-02-10T11:08:48.492Z,22.9
2024-02-10T11:10:31.845Z,22.9
2024-02-10T11:12:15.128Z,22.9
2024-02-10T11:13:58.591Z,22.8
2024-02-10T11:15:41.950Z,22.8
2024-02-10T11:17:25.293Z,22.8
2024-02-10T11:22:34.519Z,22.8
2024-02-10T11:24:18.030Z,22.8
2024-02-10T11:26:01.315Z,22.8
2024-02-10T11:27:44.717Z,22.8
2024-02-10T11:29:28.395Z,22.8
2024-02-10T11:31:11.645Z,22.8
2024-02-10T11:32:54.922Z,22.8
2024-02-10T11:38:04.155Z,22.8
2024-02-10T11:39:47.782Z,22.8
2024-02-10T11:41:31.084Z,22.8
2024-02-10T11:43:14.517Z,22.9
2024-02-10T11:44:57.889Z,22.9
2024-02-10T11:46:41.128Z,22.9
2024-02-10T11:48:24.534Z,22.9
2024-02-10T11:53:33.841Z,22.8
2024-02-10T11:55:17.241Z,22.9
2024-02-10T11:57:00.572Z,22.9
2024-02-10T11:58:44.219Z,22.9
2024-02-10T12:00:27.353Z,22.9
2024-02-10T12:02:10.757Z,22.9
2024-02-10T12:03:54.147Z,23
2024-02-10T12:07:20.629Z,23
2024-02-10T12:09:04.108Z,23
2024-02-10T12:10:47.433Z,23
2024-02-10T12:12:30.792Z,23
2024-02-10T12:14:14.201Z,23
2024-02-10T12:15:57.596Z,23
2024-02-10T12:17:40.992Z,23.1
2024-02-10T12:22:50.335Z,23.1
2024-02-10T12:24:33.635Z,23.1
2024-02-10T12:26:17.038Z,23.1
2024-02-10T12:28:00.454Z,23.1
2024-02-10T12:29:44.049Z,23.1
2024-02-10T12:31:27.219Z,23.1
2024-02-10T12:33:10.713Z,23.1
2024-02-10T12:38:19.862Z,23.1
2024-02-10T12:40:03.308Z,23.1
2024-02-10T12:41:46.714Z,23.1
2024-02-10T12:43:30.037Z,23.1
2024-02-10T12:45:13.454Z,23.1
2024-02-10T12:46:56.842Z,23.1
2024-02-10T12:48:40.437Z,23.1
2024-02-10T12:52:06.888Z,23.1
2024-02-10T12:53:50.109Z,23.1
2024-02-10T12:55:33.653Z,23.1
2024-02-10T12:57:16.972Z,23.1
2024-02-10T12:59:00.462Z,23.2
2024-02-10T13:00:43.855Z,23.2
2024-02-10T13:02:27.139Z,23.2
2024-02-10T13:04:10.502Z,23.2
2024-02-10T13:05:54.220Z,23.2
2024-02-10T13:07:37.598Z,23.3
2024-02-10T13:09:20.988Z,23.3
2024-02-10T13:11:04.560Z,23.3
2024-02-10T13:12:48.019Z,23.3
2024-02-10T13:14:31.418Z,23.3
2024-02-10T13:16:14.737Z,23.3
2024-02-10T13:17:58.244Z,23.3
2024-02-10T13:19:41.790Z,23.4
2024-02-10T13:21:25.257Z,23.3
2024-02-10T13:23:08.474Z,23.3
2024-02-10T13:24:51.868Z,23.4
2024-02-10T13:26:35.301Z,23.4
2024-02-10T13:28:18.845Z,23.4
2024-02-10T13:30:02.089Z,23.4
2024-02-10T13:33:28.524Z,23.4
2024-02-10T13:35:11.942Z,23.4
2024-02-10T13:36:55.310Z,23.4
2024-02-10T13:38:38.706Z,23.4
2024-02-10T13:40:22.130Z,23.4
2024-02-10T13:42:05.507Z,23.4
2024-02-10T13:43:48.975Z,23.5
2024-02-10T13:45:32.316Z,23.5
2024-02-10T13:47:16.065Z,23.6
2024-02-10T13:48:59.402Z,23.6
2024-02-10T13:50:43.023Z,23.6
2024-02-10T13:52:26.196Z,23.6
2024-02-10T13:54:09.730Z,23.7
2024-02-10T13:55:53.215Z,23.7
2024-02-10T13:57:36.400Z,23.7
2024-02-10T13:59:19.779Z,23.8
2024-02-10T14:01:03.516Z,23.8
2024-02-10T14:02:46.875Z,23.8
2024-02-10T14:04:30.337Z,23.9
2024-02-10T14:06:13.689Z,23.9
2024-02-10T14:07:57.080Z,23.9
2024-02-10T14:09:40.475Z,23.9
2024-02-10T14:11:23.887Z,23.9
2024-02-10T14:13:07.273Z,23.9
2024-02-10T14:14:51.118Z,23.9
2024-02-10T14:16:34.500Z,23.9
2024-02-10T14:18:17.795Z,23.9
2024-02-10T14:20:01.157Z,23.9
2024-02-10T14:21:44.550Z,23.8
2024-02-10T14:23:27.997Z,23.8
2024-02-10T14:25:11.473Z,23.8
2024-02-10T14:30:20.592Z,23.8
2024-02-10T14:32:04.019Z,23.8
2024-02-10T14:33:47.417Z,23.7
2024-02-10T14:35:30.784Z,23.7
2024-02-10T14:37:14.180Z,23.7
2024-02-10T14:38:57.586Z,23.7
2024-02-10T14:40:40.966Z,23.7
2024-02-10T14:44:07.499Z,23.7
2024-02-10T14:45:50.891Z,23.7
2024-02-10T14:47:34.234Z,23.7
2024-02-10T14:49:17.650Z,23.6
2024-02-10T14:51:01.032Z,23.6
2024-02-10T14:52:44.432Z,23.6
2024-02-10T14:54:27.829Z,23.6
2024-02-10T14:57:54.463Z,23.6
2024-02-10T14:59:37.837Z,23.6
2024-02-10T15:01:21.113Z,23.6
2024-02-10T15:03:04.601Z,23.6
2024-02-10T15:04:48.112Z,23.5
2024-02-10T15:06:31.380Z,23.5
2024-02-10T15:08:14.682Z,23.5
2024-02-10T15:13:24.001Z,23.5
2024-02-10T15:15:07.368Z,23.5
2024-02-10T15:16:50.880Z,23.5
2024-02-10T15:18:34.176Z,23.5
2024-02-10T15:20:17.501Z,23.5
2024-02-10T15:22:00.891Z,23.5
2024-02-10T15:23:44.620Z,23.5
2024-02-10T15:28:53.701Z,23.4
2024-02-10T15:30:37.055Z,23.4
2024-02-10T15:32:20.514Z,23.4
2024-02-10T15:34:04.030Z,23.4
2024-02-10T15:35:47.250Z,23.4
2024-02-10T15:37:30.605Z,23.4
2024-02-10T15:39:14.063Z,23.4
2024-02-10T15:40:57.368Z,23.4
2024-02-10T15:44:24.019Z,23.4
2024-02-10T15:46:07.287Z,23.4
2024-02-10T15:47:50.688Z,23.4
2024-02-10T15:49:34.065Z,23.4
2024-02-10T15:51:17.397Z,23.4
2024-02-10T15:53:00.856Z,23.4
2024-02-10T15:54:44.357Z,23.4
2024-02-10T15:59:53.479Z,23.3
2024-02-10T16:01:36.922Z,23.3
2024-02-10T16:03:20.343Z,23.3
2024-02-10T16:05:03.773Z,23.3
2024-02-10T16:06:47.066Z,23.3
2024-02-10T16:08:30.425Z,23.3
2024-02-10T16:10:13.866Z,23.3
2024-02-10T16:15:23.318Z,23.3
2024-02-10T16:17:06.540Z,23.3
2024-02-10T16:18:49.841Z,23.3
2024-02-10T16:20:33.331Z,23.3
2024-02-10T16:22:16.644Z,23.3
2024-02-10T16:24:00.315Z,23.3
2024-02-10T16:25:43.624Z,23.3
2024-02-10T16:30:52.777Z,23.3
2024-02-10T16:32:36.118Z,23.3
2024-02-10T16:34:19.680Z,23.2
2024-02-10T16:36:02.861Z,23.2
2024-02-10T16:37:46.277Z,23.2
2024-02-10T16:39:29.713Z,23.2
2024-02-10T16:41:13.171Z,23.2
2024-02-10T16:46:22.303Z,23.2
2024-02-10T16:48:05.726Z,23.2
2024-02-10T16:49:49.130Z,23.2
2024-02-10T16:51:32.648Z,23.2
2024-02-10T16:53:15.931Z,23.2
2024-02-10T16:54:59.422Z,23.2
2024-02-10T16:56:42.732Z,23.2
2024-02-10T16:58:26.111Z,23.2
2024-02-10T17:00:09.793Z,23.2
2024-02-10T17:01:53.180Z,23.2
2024-02-10T17:03:36.697Z,23.2
2024-02-10T17:05:19.946Z,23.2
2024-02-10T17:07:03.537Z,23.2
2024-02-10T17:08:46.884Z,23.2
2024-02-10T17:10:30.167Z,23.2
2024-02-10T17:12:13.562Z,23.2
2024-02-10T17:13:57.551Z,23.2
2024-02-10T17:15:40.818Z,23.2
2024-02-10T17:17:24.071Z,23.2
2024-02-10T17:19:07.505Z,23.2
2024-02-10T17:20:51.026Z,23.2
2024-02-10T17:22:34.301Z,23.2
2024-02-10T17:24:17.634Z,23.2
2024-02-10T17:29:27.102Z,23.2
2024-02-10T17:31:10.414Z,23.2
2024-02-10T17:32:53.722Z,23.2
2024-02-10T17:34:37.405Z,23.1
2024-02-10T17:36:20.677Z,23.1
2024-02-10T17:38:04.009Z,23.1
2024-02-10T17:39:47.330Z,23.1
2024-02-10T17:43:13.791Z,23.1
2024-02-10T17:44:57.391Z,23.1
2024-02-10T17:46:40.697Z,23.1
2024-02-10T17:48:24.163Z,23.1
2024-02-10T17:50:07.472Z,23.1
2024-02-10T17:51:50.945Z,23.1
2024-02-10T17:53:34.346Z,23.1
2024-02-10T17:55:17.665Z,23.1
2024-02-10T17:57:01.396Z,23.1
2024-02-10T17:58:44.757Z,23.1
2024-02-10T18:00:28.173Z,23.1
2024-02-10T18:02:11.497Z,23
2024-02-10T18:03:55.008Z,22.8
2024-02-10T18:05:38.407Z,22.8
2024-02-10T18:07:21.856Z,22.8
2024-02-10T18:12:30.890Z,22.8
2024-02-10T18:14:14.414Z,22.8
2024-02-10T18:15:57.835Z,22.8
2024-02-10T18:17:41.045Z,22.8
2024-02-10T18:19:24.444Z,22.8
2024-02-10T18:21:07.991Z,22.8
2024-02-10T18:22:51.520Z,22.8
2024-02-10T18:26:18.036Z,22.9
2024-02-10T18:28:01.205Z,22.9
2024-02-10T18:29:44.495Z,22.9
2024-02-10T18:31:28.047Z,22.9
2024-02-10T18:33:11.331Z,22.9
2024-02-10T18:34:54.830Z,22.9
2024-02-10T18:36:38.244Z,22.9
2024-02-10T18:38:21.463Z,22.9
2024-02-10T18:40:05.297Z,22.9
2024-02-10T18:41:48.643Z,22.9
2024-02-10T18:43:32.017Z,22.9
2024-02-10T18:45:15.462Z,22.9
2024-02-10T18:46:58.875Z,22.9
2024-02-10T18:48:42.386Z,22.9
2024-02-10T18:50:25.606Z,22.9
2024-02-10T18:52:08.937Z,22.9
2024-02-10T18:53:52.895Z,22.9
2024-02-10T18:55:36.153Z,22.9
2024-02-10T18:57:19.540Z,22.9
2024-02-10T18:59:02.946Z,22.9
2024-02-10T19:00:46.604Z,22.9
2024-02-10T19:02:29.823Z,22.9
2024-02-10T19:04:13.041Z,22.9
2024-02-10T19:09:22.358Z,22.9
2024-02-10T19:11:05.795Z,22.9
2024-02-10T19:12:49.083Z,22.9
2024-02-10T19:14:32.573Z,22.9
2024-02-10T19:16:15.957Z,22.9
2024-02-10T19:17:59.474Z,22.9
2024-02-10T19:19:42.731Z,22.9
2024-02-10T19:23:09.123Z,22.9
2024-02-10T19:24:52.722Z,22.9
2024-02-10T19:26:36.068Z,22.9
2024-02-10T19:28:19.330Z,22.9
2024-02-10T19:30:02.896Z,22.9
2024-02-10T19:31:46.239Z,22.9
2024-02-10T19:33:29.745Z,22.9
2024-02-10T19:36:56.054Z,22.9
2024-02-10T19:38:39.416Z,22.9
2024-02-10T19:40:22.781Z,22.9
2024-02-10T19:42:06.422Z,22.9
2024-02-10T19:43:49.769Z,22.9
2024-02-10T19:45:33.031Z,22.9
2024-02-10T19:47:16.668Z,22.9
2024-02-10T19:52:25.843Z,22.9
2024-02-10T19:54:09.346Z,22.9
2024-02-10T19:55:52.771Z,22.9
2024-02-10T19:57:35.943Z,22.9
2024-02-10T19:59:19.409Z,22.9
2024-02-10T20:01:02.588Z,22.9
2024-02-10T20:02:46.152Z,22.9
2024-02-10T20:06:12.663Z,22.9
2024-02-10T20:07:56.101Z,22.9
2024-02-10T20:09:39.576Z,22.9
2024-02-10T20:11:22.715Z,22.9
2024-02-10T20:13:06.356Z,22.9
2024-02-10T20:14:49.448Z,22.9
2024-02-10T20:16:32.943Z,22.9
2024-02-10T20:19:59.622Z,22.9
2024-02-10T20:21:42.931Z,22.9
2024-02-10T20:23:26.139Z,22.8
2024-02-10T20:25:09.647Z,22.9
2024-02-10T20:26:52.938Z,22.9
2024-02-10T20:28:36.391Z,22.9
2024-02-10T20:30:19.693Z,22.8
2024-02-10T20:32:03.200Z,22.8
2024-02-10T20:35:29.636Z,22.8
2024-02-10T20:37:13.004Z,22.9
2024-02-10T20:38:56.493Z,22.8
2024-02-10T20:40:39.774Z,22.8
2024-02-10T20:42:23.158Z,22.8
2024-02-10T20:44:06.567Z,22.8
2024-02-10T20:45:50.048Z,22.8
2024-02-10T20:47:33.344Z,22.9
2024-02-10T20:50:59.850Z,22.8
2024-02-10T20:52:43.246Z,22.8
2024-02-10T20:54:26.770Z,22.8
2024-02-10T20:56:10.028Z,22.8
2024-02-10T20:57:53.413Z,22.8
2024-02-10T20:59:36.837Z,22.8
2024-02-10T21:01:20.222Z,22.8
2024-02-10T21:04:46.697Z,22.8
2024-02-10T21:06:30.112Z,22.8
2024-02-10T21:08:13.485Z,22.8
2024-02-10T21:09:56.889Z,22.8
2024-02-10T21:11:40.293Z,22.8
2024-02-10T21:13:23.685Z,22.8
2024-02-10T21:15:07.114Z,22.8
2024-02-10T21:16:50.483Z,22.8
2024-02-10T21:18:34.172Z,22.8
2024-02-10T21:20:17.625Z,22.8
2024-02-10T21:22:00.952Z,22.8
2024-02-10T21:23:44.535Z,22.8
2024-02-10T21:25:27.813Z,22.8
2024-02-10T21:27:11.236Z,22.8
2024-02-10T21:28:54.539Z,22.8
2024-02-10T21:30:37.948Z,22.8
2024-02-10T21:32:21.784Z,22.8
2024-02-10T21:34:05.105Z,22.8
2024-02-10T21:35:48.593Z,22.8
2024-02-10T21:37:31.975Z,22.8
2024-02-10T21:39:15.222Z,22.8
2024-02-10T21:40:58.657Z,22.8
2024-02-10T21:42:42.029Z,22.8
2024-02-10T21:44:25.510Z,22.8
2024-02-10T21:46:09.202Z,22.8
2024-02-10T21:47:52.565Z,22.8
2024-02-10T21:49:35.919Z,22.8
2024-02-10T21:51:19.323Z,22.8
2024-02-10T21:53:02.723Z,22.8
2024-02-10T21:54:46.240Z,22.8
2024-02-10T21:56:29.516Z,22.8
2024-02-10T21:58:12.920Z,22.8
2024-02-10T21:59:56.614Z,22.8
2024-02-10T22:01:40.012Z,22.8
2024-02-10T22:03:23.412Z,22.8
2024-02-10T22:05:06.824Z,22.8
2024-02-10T22:06:50.222Z,22.8
2024-02-10T22:08:33.738Z,22.8
2024-02-10T22:10:17.053Z,22.8
2024-02-10T22:12:00.372Z,22.8
2024-02-10T22:13:44.166Z,22.8
2024-02-10T22:15:27.758Z,22.8
2024-02-10T22:17:10.968Z,22.8
2024-02-10T22:18:54.456Z,22.8
2024-02-10T22:20:37.711Z,22.8
2024-02-10T22:22:21.193Z,22.8
2024-02-10T22:24:04.486Z,22.8
2024-02-10T22:25:47.884Z,22.8
2024-02-10T22:27:31.588Z,22.8
2024-02-10T22:29:15.065Z,22.7
2024-02-10T22:30:58.377Z,22.8
2024-02-10T22:32:41.786Z,22.8
2024-02-10T22:34:25.160Z,22.8
2024-02-10T22:36:08.563Z,22.8
2024-02-10T22:37:51.989Z,22.8
2024-02-10T22:41:18.499Z,22.8
2024-02-10T22:43:01.860Z,22.8
2024-02-10T22:44:45.275Z,22.8
2024-02-10T22:46:28.713Z,22.8
2024-02-10T22:48:12.041Z,22.8
2024-02-10T22:49:55.452Z,22.8
2024-02-10T22:51:38.827Z,22.8
2024-02-10T22:53:22.531Z,22.8
2024-02-10T22:55:05.989Z,22.8
2024-02-10T22:56:49.468Z,22.8
2024-02-10T22:58:32.760Z,22.8
2024-02-10T23:00:16.152Z,22.8
2024-02-10T23:01:59.628Z,22.8
2024-02-10T23:03:42.973Z,22.8
2024-02-10T23:07:09.477Z,22.8
2024-02-10T23:08:52.876Z,22.8
2024-02-10T23:10:36.178Z,22.8
2024-02-10T23:12:19.552Z,22.8
2024-02-10T23:14:02.971Z,22.8
2024-02-10T23:15:46.353Z,22.8
2024-02-10T23:17:29.747Z,22.8
2024-02-10T23:20:56.360Z,22.7
2024-02-10T23:22:39.636Z,22.7
2024-02-10T23:24:23.031Z,22.7
2024-02-10T23:26:06.418Z,22.7
2024-02-10T23:27:49.899Z,22.7
2024-02-10T23:29:33.279Z,22.8
2024-02-10T23:31:16.681Z,22.7
2024-02-10T23:34:43.096Z,22.7
2024-02-10T23:36:26.489Z,22.7
2024-02-10T23:38:09.873Z,22.7
2024-02-10T23:39:53.275Z,22.7
2024-02-10T23:41:36.671Z,22.7
2024-02-10T23:43:20.078Z,22.7
2024-02-10T23:45:03.541Z,22.7
2024-02-10T23:48:29.968Z,22.7
2024-02-10T23:50:13.522Z,22.7
2024-02-10T23:51:56.760Z,22.7
2024-02-10T23:53:40.162Z,22.7
2024-02-10T23:55:23.554Z,22.7
2024-02-10T23:57:06.992Z,22.7
2024-02-10T23:58:50.328Z,22.7
